createdAt,value
2018-03-28T00:00:12.454Z,24.90
2018-03-28T00:02:39.465Z,25.52
2018-03-28T00:05:08.543Z,22.73
2018-03-28T00:07:35.573Z,25.10
2018-03-28T00:10:02.615Z,25.50
2018-03-28T00:12:29.654Z,23.90
2018-03-28T00:14:56.734Z,24.02
2018-03-28T00:17:23.737Z,27.25
2018-03-28T00:19:50.750Z,27.67
2018-03-28T00:22:18.706Z,27.08
2018-03-28T00:24:45.825Z,25.05
2018-03-28T00:27:12.853Z,24.55
2018-03-28T00:29:39.875Z,24.83
2018-03-28T00:32:07.653Z,25.52
2018-03-28T00:34:34.717Z,23.23
2018-03-28T00:37:01.729Z,22.37
2018-03-28T00:39:29.506Z,21.80
2018-03-28T00:41:56.517Z,21.87
2018-03-28T00:44:23.625Z,20.12
2018-03-28T00:46:52.318Z,22.40
2018-03-28T00:49:19.356Z,22.30
2018-03-28T00:51:46.382Z,24.05
2018-03-28T00:54:14.194Z,24.08
2018-03-28T00:56:41.201Z,26.42
2018-03-28T00:59:08.194Z,28.15
2018-03-28T01:01:35.265Z,25.08
2018-03-28T01:04:02.405Z,31.77
2018-03-28T01:06:29.469Z,27.60
2018-03-28T01:08:57.379Z,29.20
2018-03-28T01:11:24.390Z,26.02
2018-03-28T01:13:53.254Z,26.62
2018-03-28T01:16:21.045Z,25.37
2018-03-28T01:18:48.805Z,29.50
2018-03-28T01:21:15.884Z,25.45
2018-03-28T01:23:43.006Z,24.73
2018-03-28T01:26:10.808Z,22.25
2018-03-28T01:28:37.880Z,24.98
2018-03-28T01:31:04.925Z,24.23
2018-03-28T01:33:31.970Z,25.33
2018-03-28T01:35:59.017Z,26.30
2018-03-28T01:38:26.086Z,23.98
2018-03-28T01:40:53.138Z,25.48
2018-03-28T01:43:20.178Z,25.85
2018-03-28T01:45:47.178Z,26.20
2018-03-28T01:48:14.160Z,27.62
2018-03-28T01:50:41.229Z,27.13
2018-03-28T01:53:08.343Z,24.08
2018-03-28T01:55:35.367Z,25.90
2018-03-28T01:58:02.418Z,24.70
2018-03-28T02:00:30.152Z,26.10
2018-03-28T02:02:57.978Z,25.80
2018-03-28T02:05:24.981Z,26.60
2018-03-28T02:07:52.397Z,22.00
2018-03-28T02:10:19.446Z,25.08
2018-03-28T02:12:46.462Z,24.77
2018-03-28T02:15:13.497Z,24.63
2018-03-28T02:17:40.616Z,23.27
2018-03-28T02:20:07.683Z,23.83
2018-03-28T02:22:34.797Z,24.75
2018-03-28T02:25:02.678Z,23.75
2018-03-28T02:27:29.667Z,22.45
2018-03-28T02:29:56.706Z,20.40
2018-03-28T02:32:23.774Z,22.52
2018-03-28T02:34:50.797Z,22.15
2018-03-28T02:37:17.818Z,24.87
2018-03-28T02:39:44.900Z,22.15
2018-03-28T02:42:11.973Z,19.00
2018-03-28T02:44:39.099Z,21.83
2018-03-28T02:47:06.127Z,21.12
2018-03-28T02:49:33.176Z,21.40
2018-03-28T02:52:00.226Z,21.40
2018-03-28T02:54:27.316Z,18.75
2018-03-28T02:56:54.351Z,18.62
2018-03-28T02:59:21.358Z,18.35
2018-03-28T03:01:48.346Z,18.55
2018-03-28T03:04:15.490Z,17.85
2018-03-28T03:06:42.505Z,16.65
2018-03-28T03:09:09.574Z,18.35
2018-03-28T03:11:36.694Z,18.23
2018-03-28T03:14:03.837Z,17.80
2018-03-28T03:16:30.880Z,17.48
2018-03-28T03:18:57.871Z,17.85
2018-03-28T03:21:24.911Z,19.52
2018-03-28T03:23:52.022Z,17.45
2018-03-28T03:26:19.038Z,19.23
2018-03-28T03:28:46.055Z,18.73
2018-03-28T03:31:13.074Z,18.67
2018-03-28T03:33:40.133Z,18.87
2018-03-28T03:36:07.892Z,18.67
2018-03-28T03:38:34.893Z,18.02
2018-03-28T03:41:01.949Z,18.80
2018-03-28T03:43:29.789Z,18.48
2018-03-28T03:45:56.789Z,18.20
2018-03-28T03:48:23.799Z,19.60
2018-03-28T03:50:50.838Z,20.80
2018-03-28T03:53:21.533Z,17.90
2018-03-28T03:55:48.546Z,20.05
2018-03-28T03:58:15.614Z,18.37
2018-03-28T04:00:43.357Z,17.75
2018-03-28T04:03:11.202Z,18.27
2018-03-28T04:05:38.933Z,19.27
2018-03-28T04:08:05.938Z,18.27
2018-03-28T04:10:32.966Z,17.30
2018-03-28T04:12:59.989Z,21.33
2018-03-28T04:15:27.863Z,18.58
2018-03-28T04:17:55.761Z,19.15
2018-03-28T04:20:22.762Z,20.70
2018-03-28T04:22:50.557Z,20.48
2018-03-28T04:25:17.690Z,19.35
2018-03-28T04:27:44.727Z,20.67
2018-03-28T04:30:11.897Z,20.08
2018-03-28T04:32:39.002Z,18.55
2018-03-28T04:35:06.098Z,19.33
2018-03-28T04:37:33.916Z,17.60
2018-03-28T04:40:00.912Z,18.25
2018-03-28T04:43:05.131Z,18.52
2018-03-28T04:51:35.983Z,18.55
2018-03-28T05:01:38.480Z,19.42
2018-03-28T05:04:10.338Z,21.00
2018-03-28T05:06:38.209Z,18.80
2018-03-28T05:09:05.354Z,22.20
2018-03-28T05:11:32.461Z,19.50
2018-03-28T05:14:00.321Z,20.08
2018-03-28T05:16:27.338Z,18.27
2018-03-28T05:18:56.329Z,18.67
2018-03-28T05:21:25.305Z,19.75
2018-03-28T05:23:53.158Z,19.65
2018-03-28T05:26:22.048Z,19.58
2018-03-28T05:28:49.319Z,18.25
2018-03-28T05:31:16.395Z,17.25
2018-03-28T05:33:44.518Z,19.52
2018-03-28T05:36:11.724Z,17.48
2018-03-28T05:38:39.622Z,17.15
2018-03-28T05:41:09.682Z,17.65
2018-03-28T05:51:44.939Z,18.75
2018-03-28T05:57:14.539Z,19.52
2018-03-28T05:59:52.700Z,17.48
2018-03-28T06:02:22.107Z,18.20
2018-03-28T06:04:56.078Z,18.02
2018-03-28T06:07:36.775Z,19.08
2018-03-28T06:10:18.237Z,20.12
2018-03-28T06:12:58.853Z,19.27
2018-03-28T06:15:55.372Z,18.25
2018-03-28T06:18:30.007Z,17.45
2018-03-28T06:21:12.987Z,19.42
2018-03-28T06:23:46.841Z,19.20
2018-03-28T06:26:13.900Z,19.67
2018-03-28T06:28:41.114Z,17.77
2018-03-28T06:31:08.342Z,17.05
2018-03-28T06:33:35.399Z,16.73
2018-03-28T06:36:03.230Z,18.35
2018-03-28T06:38:30.438Z,19.45
2018-03-28T06:40:57.466Z,21.83
2018-03-28T06:43:24.518Z,17.92
2018-03-28T06:45:51.550Z,19.85
2018-03-28T06:48:19.310Z,16.37
2018-03-28T06:50:46.349Z,17.85
2018-03-28T06:53:14.362Z,20.05
2018-03-28T06:55:41.430Z,18.98
2018-03-28T06:58:08.457Z,18.83
2018-03-28T07:00:35.501Z,17.75
2018-03-28T07:03:04.329Z,20.48
2018-03-28T07:05:31.557Z,18.27
2018-03-28T07:07:58.615Z,18.98
2018-03-28T07:10:25.817Z,20.10
2018-03-28T07:12:52.981Z,20.05
2018-03-28T07:15:56.316Z,19.40
2018-03-28T07:18:25.107Z,17.35
2018-03-28T07:20:55.020Z,17.45
2018-03-28T07:23:22.687Z,18.15
2018-03-28T07:25:51.422Z,20.52
2018-03-28T07:31:17.708Z,18.55
2018-03-28T07:33:46.627Z,16.35
2018-03-28T07:36:13.767Z,18.85
2018-03-28T07:38:42.175Z,18.77
2018-03-28T07:41:10.592Z,18.47
2018-03-28T07:43:43.368Z,18.70
2018-03-28T07:46:10.422Z,20.03
2018-03-28T07:48:37.444Z,19.40
2018-03-28T07:51:04.641Z,18.45
2018-03-28T07:53:31.652Z,18.47
2018-03-28T07:55:58.662Z,19.90
2018-03-28T07:58:25.693Z,18.65
2018-03-28T08:00:52.716Z,19.60
2018-03-28T08:03:19.747Z,19.97
2018-03-28T08:05:46.790Z,21.13
2018-03-28T08:08:14.538Z,18.30
2018-03-28T08:10:41.552Z,17.90
2018-03-28T08:13:08.606Z,17.47
2018-03-28T08:15:35.627Z,18.83
2018-03-28T08:18:02.654Z,22.07
2018-03-28T08:20:29.705Z,20.43
2018-03-28T08:22:56.721Z,19.90
2018-03-28T08:25:23.743Z,20.70
2018-03-28T08:27:50.778Z,21.97
2018-03-28T08:30:17.822Z,19.97
2018-03-28T08:32:44.832Z,19.07
2018-03-28T08:35:11.865Z,19.73
2018-03-28T08:37:38.893Z,18.63
2018-03-28T08:40:06.693Z,21.37
2018-03-28T08:42:33.685Z,23.53
2018-03-28T08:45:00.719Z,22.20
2018-03-28T08:47:27.756Z,21.70
2018-03-28T08:49:54.806Z,23.70
2018-03-28T08:52:21.834Z,22.37
2018-03-28T08:54:48.862Z,19.97
2018-03-28T08:57:15.905Z,20.37
2018-03-28T08:59:42.909Z,22.00
2018-03-28T09:02:10.674Z,19.93
2018-03-28T09:04:37.729Z,20.10
2018-03-28T09:07:04.779Z,20.67
2018-03-28T09:09:31.786Z,20.30
2018-03-28T09:11:59.049Z,20.17
2018-03-28T09:14:26.162Z,19.67
2018-03-28T09:16:53.906Z,21.90
2018-03-28T09:19:20.964Z,23.67
2018-03-28T09:21:48.153Z,21.33
2018-03-28T09:24:15.978Z,19.47
2018-03-28T09:26:43.199Z,21.00
2018-03-28T09:29:10.238Z,23.67
2018-03-28T09:31:37.510Z,21.13
2018-03-28T09:34:05.465Z,20.80
2018-03-28T09:36:32.548Z,22.00
2018-03-28T09:39:00.478Z,20.87
2018-03-28T09:41:27.601Z,21.53
2018-03-28T09:43:54.921Z,21.80
2018-03-28T09:46:21.986Z,21.30
2018-03-28T09:48:48.980Z,20.60
2018-03-28T09:51:16.055Z,20.03
2018-03-28T09:53:43.811Z,20.87
2018-03-28T09:56:10.861Z,22.23
2018-03-28T09:58:37.969Z,21.23
2018-03-28T10:01:08.061Z,19.50
2018-03-28T10:03:41.024Z,19.63
2018-03-28T10:06:08.007Z,19.83
2018-03-28T10:08:35.020Z,20.83
2018-03-28T10:11:02.114Z,18.03
2018-03-28T10:13:29.120Z,20.07
2018-03-28T10:15:56.132Z,20.60
2018-03-28T10:18:23.154Z,20.60
2018-03-28T10:20:50.166Z,19.43
2018-03-28T10:23:17.942Z,18.30
2018-03-28T10:25:44.978Z,20.00
2018-03-28T10:28:12.711Z,21.30
2018-03-28T10:30:39.736Z,19.10
2018-03-28T10:33:07.090Z,20.40
2018-03-28T10:35:34.157Z,20.40
2018-03-28T10:38:01.153Z,19.70
2018-03-28T10:40:28.244Z,21.07
2018-03-28T10:42:55.234Z,20.10
2018-03-28T10:45:22.473Z,18.37
2018-03-28T10:47:50.301Z,17.83
2018-03-28T10:50:17.626Z,17.53
2018-03-28T10:52:44.790Z,18.23
2018-03-28T10:55:12.559Z,19.43
2018-03-28T10:57:39.614Z,20.30
2018-03-28T11:00:06.666Z,20.23
2018-03-28T11:02:33.857Z,21.73
2018-03-28T11:05:00.899Z,19.97
2018-03-28T11:07:27.904Z,21.87
2018-03-28T11:09:55.248Z,18.23
2018-03-28T11:12:22.361Z,20.70
2018-03-28T11:14:49.420Z,21.77
2018-03-28T11:17:16.434Z,20.47
2018-03-28T11:19:43.487Z,20.70
2018-03-28T11:22:10.498Z,20.43
2018-03-28T11:24:37.534Z,21.00
2018-03-28T11:27:04.557Z,20.50
2018-03-28T11:29:31.565Z,22.00
2018-03-28T11:31:58.590Z,23.50
2018-03-28T11:34:25.606Z,20.07
2018-03-28T11:36:52.958Z,20.27
2018-03-28T11:39:21.098Z,21.87
2018-03-28T11:41:48.910Z,20.77
2018-03-28T11:44:16.663Z,18.97
2018-03-28T11:46:43.681Z,18.23
2018-03-28T11:49:10.707Z,20.30
2018-03-28T11:51:37.697Z,20.43
2018-03-28T11:54:04.798Z,17.40
2018-03-28T11:56:32.138Z,19.60
2018-03-28T11:58:59.490Z,19.10
2018-03-28T12:01:26.598Z,18.60
2018-03-28T12:03:53.733Z,20.40
2018-03-28T12:06:20.865Z,18.67
2018-03-28T12:08:47.893Z,17.70
2018-03-28T12:11:14.921Z,18.00
2018-03-28T12:13:42.674Z,19.73
2018-03-28T12:16:09.914Z,19.27
2018-03-28T12:18:36.977Z,19.07
2018-03-28T12:21:04.742Z,17.67
2018-03-28T12:23:31.769Z,18.23
2018-03-28T12:25:58.817Z,20.17
2018-03-28T12:28:26.828Z,20.83
2018-03-28T12:30:53.960Z,22.37
2018-03-28T12:33:21.030Z,22.40
2018-03-28T12:35:48.058Z,22.03
2018-03-28T12:38:15.050Z,21.87
2018-03-28T12:40:42.242Z,20.00
2018-03-28T12:43:09.257Z,19.40
2018-03-28T12:45:36.270Z,20.40
2018-03-28T12:48:03.326Z,21.20
2018-03-28T12:50:30.477Z,19.50
2018-03-28T12:52:57.509Z,20.43
2018-03-28T12:55:24.720Z,19.20
2018-03-28T12:57:52.374Z,19.60
2018-03-28T13:00:19.361Z,17.13
2018-03-28T13:02:47.130Z,20.37
2018-03-28T13:05:14.180Z,20.53
2018-03-28T13:07:41.181Z,20.73
2018-03-28T13:10:08.215Z,21.00
2018-03-28T13:12:35.256Z,21.30
2018-03-28T13:15:02.283Z,21.97
2018-03-28T13:17:29.327Z,21.50
2018-03-28T13:19:57.088Z,19.70
2018-03-28T13:22:24.041Z,21.10
2018-03-28T13:24:51.068Z,21.90
2018-03-28T13:27:18.830Z,22.33
2018-03-28T13:29:46.579Z,21.17
2018-03-28T13:32:14.345Z,20.30
2018-03-28T13:34:42.117Z,22.67
2018-03-28T13:37:09.126Z,20.77
2018-03-28T13:39:36.256Z,22.03
2018-03-28T13:42:03.270Z,21.67
2018-03-28T13:44:30.319Z,20.90
2018-03-28T13:46:57.358Z,20.37
2018-03-28T13:49:24.365Z,20.90
2018-03-28T13:51:51.416Z,21.30
2018-03-28T13:54:18.440Z,21.77
2018-03-28T13:56:45.476Z,21.23
2018-03-28T13:59:12.542Z,19.47
2018-03-28T14:01:39.561Z,21.03
2018-03-28T14:04:06.582Z,18.37
2018-03-28T14:06:33.623Z,19.17
2018-03-28T14:09:01.374Z,19.53
2018-03-28T14:11:28.355Z,19.43
2018-03-28T14:13:55.401Z,20.40
2018-03-28T14:16:22.833Z,19.03
2018-03-28T14:18:50.398Z,20.70
2018-03-28T14:21:18.186Z,20.07
2018-03-28T14:23:45.949Z,19.13
2018-03-28T14:26:12.963Z,21.23
2018-03-28T14:28:40.750Z,21.03
2018-03-28T14:31:07.758Z,20.60
2018-03-28T14:33:34.791Z,19.60
2018-03-28T14:36:01.815Z,21.40
2018-03-28T14:38:28.817Z,20.80
2018-03-28T14:40:55.850Z,21.37
2018-03-28T14:43:22.885Z,22.07
2018-03-28T14:45:49.916Z,23.03
2018-03-28T14:48:16.954Z,22.03
2018-03-28T14:50:43.974Z,20.03
2018-03-28T14:53:11.709Z,24.13
2018-03-28T14:55:38.752Z,20.90
2018-03-28T14:58:05.820Z,20.50
2018-03-28T15:00:32.849Z,21.90
2018-03-28T15:02:59.885Z,19.73
2018-03-28T15:05:26.898Z,21.00
2018-03-28T15:07:53.945Z,20.63
2018-03-28T15:10:21.698Z,22.93
2018-03-28T15:12:48.737Z,21.37
2018-03-28T15:15:15.814Z,20.60
2018-03-28T15:17:42.877Z,23.60
2018-03-28T15:20:09.918Z,21.97
2018-03-28T15:22:36.993Z,21.30
2018-03-28T15:25:04.066Z,24.70
2018-03-28T15:27:31.044Z,23.37
2018-03-28T15:29:58.098Z,25.07
2018-03-28T15:32:25.140Z,22.50
2018-03-28T15:34:52.329Z,24.13
2018-03-28T15:37:19.325Z,22.17
2018-03-28T15:39:46.341Z,20.67
2018-03-28T15:42:14.142Z,22.40
2018-03-28T15:44:41.203Z,21.03
2018-03-28T15:47:08.213Z,23.40
2018-03-28T15:49:35.981Z,21.20
2018-03-28T15:52:03.003Z,24.07
2018-03-28T15:54:30.026Z,23.43
2018-03-28T15:56:57.246Z,22.30
2018-03-28T15:59:25.056Z,24.00
2018-03-28T16:01:52.129Z,24.17
2018-03-28T16:04:19.161Z,24.37
2018-03-28T16:06:46.196Z,21.50
2018-03-28T16:09:13.272Z,21.93
2018-03-28T16:11:41.491Z,22.30
2018-03-28T16:14:09.477Z,23.80
2018-03-28T16:16:36.476Z,21.40
2018-03-28T16:19:03.782Z,19.83
2018-03-28T16:21:31.022Z,22.27
2018-03-28T16:23:58.108Z,20.33
2018-03-28T16:26:26.205Z,22.20
2018-03-28T16:28:53.577Z,21.50
2018-03-28T16:31:20.797Z,20.37
2018-03-28T16:33:47.849Z,22.97
2018-03-28T16:36:15.087Z,21.90
2018-03-28T16:38:42.246Z,21.03
2018-03-28T16:41:10.075Z,23.57
2018-03-28T16:43:37.199Z,22.80
2018-03-28T16:46:04.429Z,20.77
2018-03-28T16:48:31.556Z,23.63
2018-03-28T16:50:59.328Z,20.77
2018-03-28T16:53:26.620Z,24.50
2018-03-28T16:55:53.693Z,23.30
2018-03-28T16:58:21.465Z,21.87
2018-03-28T17:00:48.622Z,23.50
2018-03-28T17:03:15.895Z,22.57
2018-03-28T17:05:43.040Z,20.90
2018-03-28T17:08:10.125Z,22.83
2018-03-28T17:10:37.276Z,22.33
2018-03-28T17:13:04.372Z,23.83
2018-03-28T17:15:31.499Z,21.27
2018-03-28T17:17:58.556Z,21.50
2018-03-28T17:20:26.598Z,19.87
2018-03-28T17:22:53.626Z,20.67
2018-03-28T17:25:21.389Z,22.07
2018-03-28T17:27:48.445Z,21.27
2018-03-28T17:30:15.465Z,21.60
2018-03-28T17:32:43.404Z,26.03
2018-03-28T17:35:11.212Z,21.97
2018-03-28T17:37:38.714Z,23.13
2018-03-28T17:40:05.778Z,21.73
2018-03-28T17:42:33.562Z,27.40
2018-03-28T17:45:01.321Z,29.23
2018-03-28T17:47:29.149Z,31.30
2018-03-28T17:49:56.152Z,30.40
2018-03-28T17:52:23.168Z,34.30
2018-03-28T17:54:50.221Z,32.67
2018-03-28T17:57:18.005Z,34.33
2018-03-28T17:59:45.982Z,29.03
2018-03-28T18:02:13.237Z,28.57
2018-03-28T18:04:41.027Z,27.80
2018-03-28T18:07:08.022Z,27.50
2018-03-28T18:09:35.288Z,31.57
2018-03-28T18:12:02.390Z,26.60
2018-03-28T18:14:29.469Z,26.20
2018-03-28T18:16:57.225Z,25.80
2018-03-28T18:19:24.243Z,25.33
2018-03-28T18:21:51.514Z,25.40
2018-03-28T18:24:18.866Z,25.60
2018-03-28T18:26:45.971Z,28.67
2018-03-28T18:29:13.110Z,29.70
2018-03-28T18:31:40.165Z,31.23
2018-03-28T18:34:07.183Z,29.23
2018-03-28T18:36:34.979Z,29.47
2018-03-28T18:39:02.074Z,28.80
2018-03-28T18:41:29.318Z,29.37
2018-03-28T18:43:56.403Z,32.73
2018-03-28T18:46:23.618Z,31.27
2018-03-28T18:48:50.793Z,34.37
2018-03-28T18:51:18.021Z,35.13
2018-03-28T18:53:45.361Z,34.53
2018-03-28T18:56:12.358Z,34.07
2018-03-28T18:58:39.365Z,34.57
2018-03-28T19:01:06.591Z,35.70
2018-03-28T19:03:34.337Z,33.10
2018-03-28T19:06:02.378Z,35.80
2018-03-28T19:08:29.409Z,36.43
2018-03-28T19:10:56.443Z,34.77
2018-03-28T19:13:23.509Z,36.37
2018-03-28T19:15:50.786Z,34.53
2018-03-28T19:18:17.838Z,38.67
2018-03-28T19:20:45.645Z,38.37
2018-03-28T19:23:12.646Z,33.27
2018-03-28T19:25:39.654Z,36.60
2018-03-28T19:28:07.399Z,33.77
2018-03-28T19:30:34.425Z,36.20
2018-03-28T19:33:02.206Z,33.73
2018-03-28T19:35:29.243Z,32.40
2018-03-28T19:37:57.126Z,34.90
2018-03-28T19:40:24.545Z,33.93
2018-03-28T19:42:51.641Z,33.30
2018-03-28T19:45:18.697Z,33.47
2018-03-28T19:47:45.735Z,33.77
2018-03-28T19:50:12.773Z,33.40
2018-03-28T19:52:39.810Z,31.73
2018-03-28T19:55:09.322Z,30.37
2018-03-28T19:57:37.354Z,30.00
2018-03-28T20:00:04.846Z,31.83
2018-03-28T20:02:31.955Z,30.70
2018-03-28T20:04:59.034Z,27.53
2018-03-28T20:07:27.094Z,27.30
2018-03-28T20:09:54.207Z,30.27
2018-03-28T20:12:21.275Z,29.53
2018-03-28T20:14:48.353Z,29.57
2018-03-28T20:17:16.137Z,28.40
2018-03-28T20:19:43.867Z,26.90
2018-03-28T20:22:11.523Z,29.10
2018-03-28T20:24:39.608Z,31.20
2018-03-28T20:27:06.637Z,30.23
2018-03-28T20:29:33.797Z,32.03
2018-03-28T20:32:00.964Z,29.80
2018-03-28T20:34:28.149Z,30.53
2018-03-28T20:36:55.190Z,32.47
2018-03-28T20:39:22.241Z,32.50
2018-03-28T20:41:49.469Z,33.60
2018-03-28T20:44:17.301Z,32.33
2018-03-28T20:46:44.315Z,31.47
2018-03-28T20:49:11.332Z,30.97
2018-03-28T20:51:38.794Z,33.17
2018-03-28T20:54:05.998Z,33.83
2018-03-28T20:56:33.013Z,35.30
2018-03-28T20:59:00.051Z,35.20
2018-03-28T21:01:27.141Z,37.37
2018-03-28T21:03:54.257Z,34.80
2018-03-28T21:06:21.334Z,36.90
2018-03-28T21:08:48.333Z,40.47
2018-03-28T21:11:15.426Z,37.20
2018-03-28T21:13:42.913Z,39.40
2018-03-28T21:16:10.233Z,40.83
2018-03-28T21:18:37.273Z,37.07
2018-03-28T21:21:04.265Z,37.30
2018-03-28T21:23:32.018Z,39.07
2018-03-28T21:25:59.047Z,40.17
2018-03-28T21:28:26.061Z,37.00
2018-03-28T21:30:53.094Z,32.60
2018-03-28T21:33:20.133Z,38.30
2018-03-28T21:35:47.150Z,37.80
2018-03-28T21:38:14.148Z,36.00
2018-03-28T21:40:41.182Z,37.50
2018-03-28T21:43:08.186Z,34.93
2018-03-28T21:45:35.946Z,31.90
2018-03-28T21:48:03.063Z,33.00
2018-03-28T21:50:30.093Z,32.90
2018-03-28T21:52:57.121Z,31.90
2018-03-28T21:55:24.187Z,34.10
2018-03-28T21:57:51.184Z,35.50
2018-03-28T22:00:18.991Z,33.53
2018-03-28T22:02:46.014Z,31.90
2018-03-28T22:05:13.777Z,33.30
2018-03-28T22:07:41.550Z,32.80
2018-03-28T22:10:08.865Z,34.80
2018-03-28T22:12:35.930Z,33.83
2018-03-28T22:15:03.023Z,32.43
2018-03-28T22:17:30.069Z,36.10
2018-03-28T22:19:57.073Z,35.40
2018-03-28T22:22:24.114Z,33.57
2018-03-28T22:24:51.345Z,32.77
2018-03-28T22:27:18.513Z,29.93
2018-03-28T22:29:45.541Z,31.47
2018-03-28T22:32:12.605Z,33.53
2018-03-28T22:34:40.402Z,34.40
2018-03-28T22:37:08.149Z,33.57
2018-03-28T22:39:35.177Z,32.90
2018-03-28T22:42:02.222Z,34.50
2018-03-28T22:44:29.234Z,33.57
2018-03-28T22:46:56.245Z,37.53
2018-03-28T22:49:24.014Z,34.60
2018-03-28T22:51:51.795Z,34.73
2018-03-28T22:54:18.867Z,34.00
2018-03-28T22:56:45.893Z,37.10
2018-03-28T22:59:13.625Z,35.77
2018-03-28T23:01:40.647Z,36.10
2018-03-28T23:04:07.682Z,33.67
2018-03-28T23:06:34.661Z,36.17
2018-03-28T23:09:01.720Z,36.00
2018-03-28T23:11:29.470Z,35.07
2018-03-28T23:13:57.240Z,33.40
2018-03-28T23:16:24.287Z,35.93
2018-03-28T23:18:51.282Z,30.70
2018-03-28T23:21:18.284Z,33.30
2018-03-28T23:23:46.063Z,31.20
2018-03-28T23:26:13.065Z,29.00
2018-03-28T23:28:40.069Z,32.53
2018-03-28T23:31:07.081Z,33.00
2018-03-28T23:33:34.108Z,34.43
2018-03-28T23:36:01.140Z,33.70
2018-03-28T23:38:28.124Z,33.67
2018-03-28T23:40:55.144Z,32.67
2018-03-28T23:43:22.183Z,33.87
2018-03-28T23:45:49.221Z,33.20
2018-03-28T23:48:16.232Z,34.00
2018-03-28T23:50:44.020Z,29.70
2018-03-28T23:53:11.041Z,35.17
2018-03-28T23:55:38.052Z,30.03
2018-03-28T23:58:05.085Z,31.80
